createdAt,value
2023-05-19T00:01:44.174Z,100564.76
2023-05-19T00:04:15.357Z,100564.19
2023-05-19T00:06:51.101Z,100563.52
2023-05-19T00:09:20.827Z,100561.55
2023-05-19T00:11:50.920Z,100562.83
2023-05-19T00:14:21.093Z,100567.33
2023-05-19T00:16:51.001Z,100564.86
2023-05-19T00:19:20.328Z,100570.63
2023-05-19T00:21:49.717Z,100574.83
2023-05-19T00:24:18.952Z,100579.06
2023-05-19T00:26:48.409Z,100579.13
2023-05-19T00:29:19.397Z,100579.52
2023-05-19T00:31:48.936Z,100583.69
2023-05-19T00:34:18.260Z,100588.98
2023-05-19T00:36:47.455Z,100591.66
2023-05-19T00:39:17.688Z,100590.06
2023-05-19T00:41:47.063Z,100574.02
2023-05-19T00:44:16.591Z,100571.09
2023-05-19T00:46:46.220Z,100571.25
2023-05-19T00:49:16.255Z,100574.71
2023-05-19T00:51:46.443Z,100576.52
2023-05-19T00:54:16.883Z,100577.06
2023-05-19T00:56:46.269Z,100577.67
2023-05-19T00:59:16.900Z,100572.86
2023-05-19T01:01:49.107Z,100582.05
2023-05-19T01:04:22.360Z,100583.30
2023-05-19T01:06:55.543Z,100580.61
2023-05-19T01:09:24.950Z,100582.38
2023-05-19T01:11:54.459Z,100578.83
2023-05-19T01:14:24.178Z,100579.40
2023-05-19T01:17:05.858Z,100577.25
2023-05-19T01:19:56.423Z,100577.82
2023-05-19T01:22:44.441Z,100575.80
2023-05-19T01:25:44.836Z,100579.40
2023-05-19T01:28:35.026Z,100576.41
2023-05-19T01:31:07.577Z,100581.04
2023-05-19T01:33:39.614Z,100582.32
2023-05-19T01:36:11.974Z,100583.58
2023-05-19T01:38:43.510Z,100580.52
2023-05-19T01:41:14.431Z,100581.05
2023-05-19T01:43:44.800Z,100580.13
2023-05-19T01:46:15.354Z,100584.73
2023-05-19T01:48:45.922Z,100585.41
2023-05-19T01:51:16.090Z,100586.02
2023-05-19T01:53:45.653Z,100581.70
2023-05-19T01:56:24.084Z,100580.18
2023-05-19T01:59:04.655Z,100572.11
2023-05-19T02:01:57.398Z,100572.34
2023-05-19T02:04:49.554Z,100573.55
2023-05-19T02:07:42.729Z,100574.50
2023-05-19T02:10:23.244Z,100574.79
2023-05-19T02:12:54.503Z,100578.74
2023-05-19T02:15:35.676Z,100577.98
2023-05-19T02:18:06.535Z,100580.02
2023-05-19T02:20:35.898Z,100586.23
2023-05-19T02:23:05.603Z,100586.34
2023-05-19T02:25:35.228Z,100587.88
2023-05-19T02:28:04.933Z,100593.38
2023-05-19T02:30:34.437Z,100596.07
2023-05-19T02:33:06.595Z,100598.27
2023-05-19T02:35:36.232Z,100598.98
2023-05-19T02:38:05.374Z,100602.50
2023-05-19T02:40:34.718Z,100605.74
2023-05-19T02:43:04.286Z,100608.94
2023-05-19T02:45:33.620Z,100616.80
2023-05-19T02:48:03.520Z,100617.73
2023-05-19T02:50:33.188Z,100619.30
2023-05-19T02:53:02.974Z,100621.94
2023-05-19T02:55:32.360Z,100627.15
2023-05-19T02:58:01.981Z,100626.81
2023-05-19T03:00:31.677Z,100628.61
2023-05-19T03:03:03.094Z,100625.64
2023-05-19T03:05:32.839Z,100624.85
2023-05-19T03:08:02.314Z,100628.02
2023-05-19T03:10:31.793Z,100633.29
2023-05-19T03:13:01.515Z,100634.04
2023-05-19T03:15:31.167Z,100632.44
2023-05-19T03:18:00.307Z,100633.69
2023-05-19T03:20:30.729Z,100641.15
2023-05-19T03:23:01.647Z,100640.17
2023-05-19T03:25:31.543Z,100645.55
2023-05-19T03:28:01.723Z,100643.59
2023-05-19T03:30:31.419Z,100645.91
2023-05-19T03:33:12.416Z,100646.98
2023-05-19T03:35:42.394Z,100648.27
2023-05-19T03:38:12.117Z,100653.17
2023-05-19T03:40:43.433Z,100654.14
2023-05-19T03:43:13.372Z,100657.45
2023-05-19T03:45:48.636Z,100657.66
2023-05-19T03:48:52.295Z,100658.92
2023-05-19T03:51:30.409Z,100657.96
2023-05-19T03:54:06.417Z,100657.27
2023-05-19T03:56:43.088Z,100664.48
2023-05-19T03:59:12.642Z,100669.91
2023-05-19T04:01:42.259Z,100672.74
2023-05-19T04:04:11.644Z,100673.02
2023-05-19T04:06:41.056Z,100670.71
2023-05-19T04:09:16.161Z,100674.55
2023-05-19T04:11:46.309Z,100676.36
2023-05-19T04:14:16.177Z,100677.73
2023-05-19T04:16:46.051Z,100681.59
2023-05-19T04:19:15.333Z,100679.80
2023-05-19T04:21:44.952Z,100683.74
2023-05-19T04:24:14.128Z,100684.42
2023-05-19T04:26:47.379Z,100686.75
2023-05-19T04:29:19.301Z,100686.39
2023-05-19T04:31:49.648Z,100690.80
2023-05-19T04:34:20.155Z,100696.11
2023-05-19T04:36:52.476Z,100694.80
2023-05-19T04:39:24.388Z,100689.94
2023-05-19T04:41:54.425Z,100695.71
2023-05-19T04:44:23.624Z,100700.55
2023-05-19T04:46:54.718Z,100696.09
2023-05-19T04:49:24.662Z,100701.95
2023-05-19T04:51:55.915Z,100698.81
2023-05-19T04:54:28.646Z,100702.42
2023-05-19T04:56:58.315Z,100704.63
2023-05-19T04:59:28.865Z,100706.27
2023-05-19T05:01:58.421Z,100710.52
2023-05-19T05:04:28.672Z,100715.88
2023-05-19T05:06:58.157Z,100721.61
2023-05-19T05:09:27.872Z,100722.84
2023-05-19T05:11:58.336Z,100726.31
2023-05-19T05:14:28.420Z,100727.69
2023-05-19T05:16:58.730Z,100728.60
2023-05-19T05:19:29.023Z,100724.33
2023-05-19T05:21:59.164Z,100722.98
2023-05-19T05:24:29.230Z,100730.29
2023-05-19T05:27:01.544Z,100732.27
2023-05-19T05:29:31.499Z,100734.10
2023-05-19T05:32:01.037Z,100735.25
2023-05-19T05:34:30.625Z,100735.44
2023-05-19T05:37:00.018Z,100734.30
2023-05-19T05:39:31.991Z,100737.24
2023-05-19T05:42:02.521Z,100734.09
2023-05-19T05:44:32.439Z,100739.63
2023-05-19T05:47:03.943Z,100739.19
2023-05-19T05:49:36.726Z,100737.66
2023-05-19T05:52:09.484Z,100745.00
2023-05-19T05:54:44.594Z,100742.32
2023-05-19T05:57:15.408Z,100745.00
2023-05-19T05:59:47.376Z,100749.78
2023-05-19T06:02:18.335Z,100753.79
2023-05-19T06:04:48.122Z,100748.45
2023-05-19T06:07:17.531Z,100753.08
2023-05-19T06:09:47.336Z,100757.69
2023-05-19T06:12:17.428Z,100755.13
2023-05-19T06:14:50.367Z,100756.70
2023-05-19T06:17:31.384Z,100762.00
2023-05-19T06:20:00.557Z,100761.74
2023-05-19T06:22:29.716Z,100770.18
2023-05-19T06:24:59.296Z,100774.35
2023-05-19T06:27:28.652Z,100778.55
2023-05-19T06:29:57.946Z,100770.73
2023-05-19T06:32:29.892Z,100776.83
2023-05-19T06:35:00.207Z,100781.42
2023-05-19T06:37:29.495Z,100777.27
2023-05-19T06:39:59.542Z,100775.55
2023-05-19T06:42:29.265Z,100776.43
2023-05-19T06:45:00.965Z,100781.11
2023-05-19T06:47:30.229Z,100778.98
2023-05-19T06:49:59.496Z,100780.73
2023-05-19T06:52:31.975Z,100787.52
2023-05-19T06:55:03.043Z,100786.08
2023-05-19T06:57:33.352Z,100781.61
2023-05-19T07:00:04.508Z,100779.35
2023-05-19T07:02:34.082Z,100783.91
2023-05-19T07:05:08.256Z,100784.59
2023-05-19T07:07:38.147Z,100782.40
2023-05-19T07:10:09.724Z,100783.55
2023-05-19T07:12:39.077Z,100788.10
2023-05-19T07:15:09.738Z,100792.63
2023-05-19T07:17:40.102Z,100790.71
2023-05-19T07:20:11.002Z,100790.41
2023-05-19T07:22:41.101Z,100790.42
2023-05-19T07:25:10.700Z,100784.79
2023-05-19T07:27:40.220Z,100789.75
2023-05-19T07:30:10.468Z,100792.30
2023-05-19T07:32:39.982Z,100790.60
2023-05-19T07:35:10.216Z,100791.66
2023-05-19T07:37:39.757Z,100792.23
2023-05-19T07:40:10.079Z,100791.42
2023-05-19T07:42:39.327Z,100793.94
2023-05-19T07:45:09.713Z,100793.88
2023-05-19T07:47:39.163Z,100792.40
2023-05-19T07:50:09.147Z,100792.34
2023-05-19T07:52:38.422Z,100788.59
2023-05-19T07:55:07.599Z,100792.64
2023-05-19T07:57:36.942Z,100787.31
2023-05-19T08:00:10.166Z,100791.98
2023-05-19T08:02:41.848Z,100793.48
2023-05-19T08:05:11.819Z,100796.23
2023-05-19T08:07:41.119Z,100795.81
2023-05-19T08:10:10.922Z,100797.15
2023-05-19T08:12:40.628Z,100792.35
2023-05-19T08:15:13.613Z,100795.13
2023-05-19T08:17:42.932Z,100794.13
2023-05-19T08:20:12.835Z,100792.48
2023-05-19T08:22:42.130Z,100789.80
2023-05-19T08:25:11.947Z,100791.67
2023-05-19T08:27:41.831Z,100794.83
2023-05-19T08:30:12.093Z,100795.30
2023-05-19T08:32:41.923Z,100798.92
2023-05-19T08:35:11.526Z,100803.52
2023-05-19T08:37:41.213Z,100802.27
2023-05-19T08:40:17.429Z,100800.05
2023-05-19T08:42:47.190Z,100801.95
2023-05-19T08:45:17.205Z,100805.15
2023-05-19T08:47:47.572Z,100797.84
2023-05-19T08:50:25.045Z,100796.11
2023-05-19T08:53:33.946Z,100797.88
2023-05-19T08:56:20.117Z,100799.75
2023-05-19T08:58:51.355Z,100800.20
2023-05-19T09:01:22.797Z,100791.46
2023-05-19T09:03:52.369Z,100797.50
2023-05-19T09:06:21.673Z,100798.73
2023-05-19T09:08:51.365Z,100794.52
2023-05-19T09:11:22.764Z,100798.84
2023-05-19T09:13:52.449Z,100797.21
2023-05-19T09:16:22.293Z,100796.93
2023-05-19T09:18:57.121Z,100793.41
2023-05-19T09:21:33.335Z,100791.92
2023-05-19T09:24:08.488Z,100791.69
2023-05-19T09:26:43.080Z,100786.00
2023-05-19T09:29:16.697Z,100790.82
2023-05-19T09:31:54.497Z,100792.10
2023-05-19T09:34:25.272Z,100787.54
2023-05-19T09:36:54.937Z,100782.34
2023-05-19T09:39:25.347Z,100789.41
2023-05-19T09:41:56.322Z,100786.09
2023-05-19T09:44:32.720Z,100787.92
2023-05-19T09:47:02.487Z,100784.02
2023-05-19T09:49:33.095Z,100784.42
2023-05-19T09:52:04.266Z,100781.73
2023-05-19T09:54:34.707Z,100781.97
2023-05-19T09:57:08.333Z,100780.99
2023-05-19T09:59:39.317Z,100780.45
2023-05-19T10:02:17.630Z,100778.94
2023-05-19T10:04:48.568Z,100776.92
2023-05-19T10:07:21.381Z,100775.32
2023-05-19T10:09:53.339Z,100776.58
2023-05-19T10:12:24.489Z,100780.52
2023-05-19T10:14:55.240Z,100781.05
2023-05-19T10:17:26.345Z,100774.61
2023-05-19T10:19:55.746Z,100777.38
2023-05-19T10:22:25.054Z,100768.34
2023-05-19T10:24:56.116Z,100769.34
2023-05-19T10:27:28.361Z,100766.95
2023-05-19T10:30:04.967Z,100769.73
2023-05-19T10:32:34.847Z,100770.31
2023-05-19T10:35:54.935Z,100767.96
2023-05-19T10:38:59.171Z,100760.15
2023-05-19T10:42:10.048Z,100765.98
2023-05-19T10:45:19.078Z,100769.11
2023-05-19T10:47:51.676Z,100766.34
2023-05-19T10:50:21.251Z,100776.11
2023-05-19T10:52:56.085Z,100767.01
2023-05-19T10:56:04.352Z,100762.95
2023-05-19T10:58:45.886Z,100767.78
2023-05-19T11:01:18.068Z,100768.86
2023-05-19T11:03:57.261Z,100760.56
2023-05-19T11:06:36.338Z,100749.48
2023-05-19T11:09:19.450Z,100747.64
2023-05-19T11:11:54.329Z,100745.73
2023-05-19T11:14:27.714Z,100740.83
2023-05-19T11:16:59.026Z,100735.47
2023-05-19T11:19:31.428Z,100741.44
2023-05-19T11:22:11.346Z,100737.75
2023-05-19T11:24:50.398Z,100738.59
2023-05-19T11:27:31.638Z,100738.54
2023-05-19T11:30:19.392Z,100734.31
2023-05-19T11:32:48.918Z,100730.05
2023-05-19T11:35:21.411Z,100727.25
2023-05-19T11:37:54.379Z,100731.55
2023-05-19T11:40:24.178Z,100723.66
2023-05-19T11:42:53.573Z,100721.40
2023-05-19T11:45:27.077Z,100720.75
2023-05-19T11:48:02.747Z,100716.34
2023-05-19T11:50:33.405Z,100716.32
2023-05-19T11:53:03.073Z,100717.98
2023-05-19T11:55:32.981Z,100716.77
2023-05-19T11:58:05.828Z,100708.64
2023-05-19T12:00:41.384Z,100706.46
2023-05-19T12:03:10.920Z,100699.12
2023-05-19T12:05:46.586Z,100700.38
2023-05-19T12:08:20.301Z,100698.52
2023-05-19T12:10:51.121Z,100696.58
2023-05-19T12:13:21.117Z,100689.21
2023-05-19T12:15:53.747Z,100692.69
2023-05-19T12:18:23.410Z,100695.45
2023-05-19T12:20:52.700Z,100694.70
2023-05-19T12:23:22.946Z,100686.83
2023-05-19T12:25:53.356Z,100684.54
2023-05-19T12:28:22.688Z,100679.63
2023-05-19T12:30:53.895Z,100678.20
2023-05-19T12:33:24.493Z,100678.56
2023-05-19T12:35:54.865Z,100677.86
2023-05-19T12:38:24.294Z,100673.16
2023-05-19T12:40:53.450Z,100669.66
2023-05-19T12:43:23.504Z,100666.01
2023-05-19T12:45:53.616Z,100663.04
2023-05-19T12:48:23.122Z,100658.03
2023-05-19T12:50:56.267Z,100661.46
2023-05-19T12:53:28.281Z,100657.65
2023-05-19T12:55:57.794Z,100656.96
2023-05-19T12:58:27.073Z,100658.50
2023-05-19T13:01:00.348Z,100653.20
2023-05-19T13:03:29.825Z,100651.50
2023-05-19T13:06:00.136Z,100651.31
2023-05-19T13:08:29.998Z,100646.29
2023-05-19T13:10:59.510Z,100647.86
2023-05-19T13:13:29.121Z,100646.39
2023-05-19T13:15:58.372Z,100638.52
2023-05-19T13:18:27.974Z,100637.14
2023-05-19T13:20:57.433Z,100629.60
2023-05-19T13:23:26.735Z,100634.09
2023-05-19T13:25:55.782Z,100629.14
2023-05-19T13:28:25.330Z,100626.21
2023-05-19T13:30:55.480Z,100634.10
2023-05-19T13:33:24.860Z,100639.59
2023-05-19T13:35:54.261Z,100643.20
2023-05-19T13:38:23.562Z,100646.80
2023-05-19T13:40:52.889Z,100647.18
2023-05-19T13:43:22.159Z,100650.31
2023-05-19T13:45:51.386Z,100649.64
2023-05-19T13:48:20.805Z,100653.69
2023-05-19T13:50:52.750Z,100660.90
2023-05-19T13:53:22.132Z,100669.13
2023-05-19T13:55:53.398Z,100678.20
2023-05-19T13:58:22.591Z,100722.68
2023-05-19T14:00:54.696Z,100744.99
2023-05-19T14:03:25.292Z,100763.23
2023-05-19T14:05:54.772Z,100764.89
2023-05-19T14:08:24.183Z,100780.81
2023-05-19T14:10:55.671Z,100799.22
2023-05-19T14:13:33.349Z,100801.80
2023-05-19T14:16:06.529Z,100803.98
2023-05-19T14:18:35.858Z,100805.50
2023-05-19T14:21:06.029Z,100804.46
2023-05-19T14:23:36.063Z,100802.17
2023-05-19T14:26:05.547Z,100805.95
2023-05-19T14:28:34.775Z,100812.01
2023-05-19T14:31:04.982Z,100806.23
2023-05-19T14:33:35.687Z,100808.79
2023-05-19T14:36:06.384Z,100804.41
2023-05-19T14:38:36.388Z,100797.98
2023-05-19T14:41:07.373Z,100795.98
2023-05-19T14:43:36.581Z,100782.48
2023-05-19T14:46:06.216Z,100775.09
2023-05-19T14:48:36.050Z,100777.85
2023-05-19T14:51:05.436Z,100771.67
2023-05-19T14:53:35.166Z,100779.98
2023-05-19T14:56:06.537Z,100767.59
2023-05-19T14:58:36.429Z,100766.65
2023-05-19T15:01:05.792Z,100767.29
2023-05-19T15:03:35.256Z,100763.16
2023-05-19T15:06:10.715Z,100769.02
2023-05-19T15:08:41.318Z,100764.50
2023-05-19T15:11:10.402Z,100768.03
2023-05-19T15:13:40.008Z,100768.88
2023-05-19T15:18:44.820Z,100771.31
2023-05-19T15:21:14.097Z,100760.80
2023-05-19T15:23:43.355Z,100752.52
2023-05-19T15:26:13.383Z,100749.98
2023-05-19T15:28:42.774Z,100744.41
2023-05-19T15:31:12.366Z,100752.58
2023-05-19T15:33:42.289Z,100761.73
2023-05-19T15:36:16.611Z,100784.89
2023-05-19T15:38:46.220Z,100803.63
2023-05-19T15:41:15.436Z,100824.45
2023-05-19T15:43:46.519Z,100826.95
2023-05-19T15:46:16.393Z,100828.92
2023-05-19T15:48:45.898Z,100831.60
2023-05-19T15:51:16.128Z,100827.27
2023-05-19T15:53:45.705Z,100825.86
2023-05-19T15:56:15.106Z,100825.70
2023-05-19T15:58:44.442Z,100833.17
2023-05-19T16:01:15.290Z,100830.71
2023-05-19T16:03:46.072Z,100826.70
2023-05-19T16:06:15.695Z,100824.86
2023-05-19T16:08:45.413Z,100824.51
2023-05-19T16:11:14.746Z,100817.93
2023-05-19T16:13:44.651Z,100823.00
2023-05-19T16:16:16.557Z,100822.33
2023-05-19T16:18:45.997Z,100823.25
2023-05-19T16:21:15.503Z,100821.47
2023-05-19T16:23:45.000Z,100829.88
2023-05-19T16:26:14.710Z,100827.23
2023-05-19T16:28:44.000Z,100825.04
2023-05-19T16:31:13.326Z,100818.75
2023-05-19T16:33:42.919Z,100814.08
2023-05-19T16:36:12.537Z,100813.71
2023-05-19T16:38:42.030Z,100811.64
2023-05-19T16:41:12.288Z,100803.67
2023-05-19T16:43:41.605Z,100798.91
2023-05-19T16:46:12.470Z,100798.93
2023-05-19T16:48:41.792Z,100791.86
2023-05-19T16:51:11.091Z,100788.39
2023-05-19T16:53:40.597Z,100786.33
2023-05-19T16:56:09.734Z,100781.77
2023-05-19T16:58:39.607Z,100779.80
2023-05-19T17:01:10.759Z,100781.39
2023-05-19T17:03:40.259Z,100774.81
2023-05-19T17:06:09.881Z,100775.84
2023-05-19T17:08:40.402Z,100775.09
2023-05-19T17:11:09.690Z,100771.66
2023-05-19T17:13:39.922Z,100768.69
2023-05-19T17:16:09.318Z,100777.54
2023-05-19T17:18:38.469Z,100767.88
2023-05-19T17:21:08.123Z,100773.83
2023-05-19T17:23:38.285Z,100776.48
2023-05-19T17:26:07.970Z,100774.41
2023-05-19T17:28:37.154Z,100773.20
2023-05-19T17:31:15.397Z,100772.91
2023-05-19T17:33:46.297Z,100774.29
2023-05-19T17:36:16.023Z,100773.21
2023-05-19T17:38:45.313Z,100775.20
2023-05-19T17:41:14.636Z,100780.84
2023-05-19T17:43:44.023Z,100785.39
2023-05-19T17:46:13.478Z,100784.95
2023-05-19T17:48:42.884Z,100789.77
2023-05-19T17:51:12.537Z,100787.23
2023-05-19T17:53:43.036Z,100794.02
2023-05-19T17:56:13.141Z,100797.21
2023-05-19T17:58:44.306Z,100797.63
2023-05-19T18:01:14.957Z,100803.00
2023-05-19T18:03:49.654Z,100809.53
2023-05-19T18:06:20.625Z,100815.55
2023-05-19T18:08:53.296Z,100815.27
2023-05-19T18:11:23.319Z,100818.40
2023-05-19T18:13:52.524Z,100820.09
2023-05-19T18:16:21.705Z,100828.92
2023-05-19T18:18:51.299Z,100836.58
2023-05-19T18:21:20.604Z,100845.14
2023-05-19T18:23:49.959Z,100857.05
2023-05-19T18:26:19.437Z,100866.80
2023-05-19T18:28:48.944Z,100878.70
2023-05-19T18:31:20.211Z,100882.27
2023-05-19T18:33:49.692Z,100889.59
2023-05-19T18:36:19.413Z,100891.42
2023-05-19T18:38:50.557Z,100890.94
2023-05-19T18:41:20.277Z,100887.91
2023-05-19T18:43:49.470Z,100894.81
2023-05-19T18:46:18.924Z,100890.56
2023-05-19T18:48:50.837Z,100889.88
2023-05-19T18:51:21.499Z,100886.87
2023-05-19T18:53:51.174Z,100880.32
2023-05-19T18:56:27.923Z,100877.89
2023-05-19T18:58:58.266Z,100878.27
2023-05-19T19:01:27.689Z,100875.44
2023-05-19T19:03:56.904Z,100877.84
2023-05-19T19:06:26.272Z,100875.52
2023-05-19T19:08:55.488Z,100870.10
2023-05-19T19:11:24.999Z,100872.63
2023-05-19T19:13:56.218Z,100878.70
2023-05-19T19:16:25.540Z,100881.83
2023-05-19T19:18:54.979Z,100886.16
2023-05-19T19:21:24.848Z,100883.54
2023-05-19T19:23:56.928Z,100885.46
2023-05-19T19:26:29.270Z,100885.89
2023-05-19T19:28:58.874Z,100887.10
2023-05-19T19:31:31.246Z,100882.27
2023-05-19T19:34:03.839Z,100879.44
2023-05-19T19:36:33.411Z,100877.13
2023-05-19T19:39:03.069Z,100871.10
2023-05-19T19:41:33.558Z,100870.64
2023-05-19T19:44:02.839Z,100867.77
2023-05-19T19:46:32.340Z,100868.30
2023-05-19T19:49:02.143Z,100870.58
2023-05-19T19:51:31.887Z,100873.52
2023-05-19T19:54:01.287Z,100878.11
2023-05-19T19:56:30.746Z,100878.48
2023-05-19T19:59:01.676Z,100879.06
2023-05-19T20:01:31.223Z,100874.98
2023-05-19T20:04:01.151Z,100876.85
2023-05-19T20:06:31.225Z,100877.96
2023-05-19T20:09:00.601Z,100874.00
2023-05-19T20:11:30.957Z,100869.03
2023-05-19T20:14:00.645Z,100866.23
2023-05-19T20:16:30.104Z,100864.82
2023-05-19T20:18:59.676Z,100859.11
2023-05-19T20:21:29.472Z,100858.48
2023-05-19T20:23:59.067Z,100855.31
2023-05-19T20:26:29.516Z,100849.42
2023-05-19T20:28:59.322Z,100849.65
2023-05-19T20:31:28.812Z,100848.23
2023-05-19T20:33:59.352Z,100849.54
2023-05-19T20:36:30.386Z,100845.69
2023-05-19T20:39:00.125Z,100841.55
2023-05-19T20:41:29.601Z,100843.50
2023-05-19T20:43:58.882Z,100843.70
2023-05-19T20:46:28.781Z,100841.08
2023-05-19T20:48:58.212Z,100842.13
2023-05-19T20:51:27.505Z,100841.04
2023-05-19T20:53:57.540Z,100837.33
2023-05-19T20:56:26.987Z,100840.52
2023-05-19T20:58:56.683Z,100837.20
2023-05-19T21:01:26.400Z,100832.87
2023-05-19T21:03:56.500Z,100835.84
2023-05-19T21:06:25.944Z,100835.78
2023-05-19T21:08:55.159Z,100838.46
2023-05-19T21:11:24.701Z,100838.55
2023-05-19T21:13:56.277Z,100844.00
2023-05-19T21:16:26.439Z,100853.27
2023-05-19T21:18:55.832Z,100854.19
2023-05-19T21:21:26.805Z,100859.73
2023-05-19T21:23:56.856Z,100860.11
2023-05-19T21:26:26.972Z,100861.48
2023-05-19T21:28:56.256Z,100859.96
2023-05-19T21:31:25.839Z,100857.91
2023-05-19T21:33:55.696Z,100858.43
2023-05-19T21:36:25.197Z,100853.00
2023-05-19T21:38:54.756Z,100854.83
2023-05-19T21:41:24.287Z,100855.16
2023-05-19T21:43:53.770Z,100855.26
2023-05-19T21:46:23.259Z,100855.36
2023-05-19T21:48:52.832Z,100851.67
2023-05-19T21:51:22.117Z,100854.33
2023-05-19T21:53:51.513Z,100854.13
2023-05-19T21:56:21.259Z,100855.68
2023-05-19T21:58:50.518Z,100856.80
2023-05-19T22:01:19.728Z,100858.26
2023-05-19T22:03:49.223Z,100857.98
2023-05-19T22:06:18.528Z,100861.65
2023-05-19T22:08:48.030Z,100863.79
2023-05-19T22:11:18.187Z,100864.27
2023-05-19T22:13:47.385Z,100863.30
2023-05-19T22:16:16.817Z,100862.08
2023-05-19T22:18:46.712Z,100862.55
2023-05-19T22:21:16.167Z,100865.50
2023-05-19T22:23:45.361Z,100857.74
2023-05-19T22:26:14.563Z,100855.12
2023-05-19T22:28:43.966Z,100855.36
2023-05-19T22:31:13.370Z,100854.16
2023-05-19T22:33:42.554Z,100855.66
2023-05-19T22:36:11.695Z,100850.55
2023-05-19T22:38:41.585Z,100850.68
2023-05-19T22:41:11.398Z,100853.29
2023-05-19T22:43:41.004Z,100854.62
2023-05-19T22:46:10.539Z,100852.31
2023-05-19T22:48:39.906Z,100845.98
2023-05-19T22:51:09.132Z,100847.16
2023-05-19T22:53:38.402Z,100842.55
2023-05-19T22:56:07.942Z,100842.48
2023-05-19T22:58:37.520Z,100839.34
2023-05-19T23:01:06.879Z,100836.87
2023-05-19T23:03:36.298Z,100835.05
2023-05-19T23:06:05.933Z,100829.70
2023-05-19T23:08:35.442Z,100826.02
2023-05-19T23:11:05.054Z,100819.35
2023-05-19T23:13:34.674Z,100816.55
2023-05-19T23:16:06.756Z,100811.10
2023-05-19T23:18:36.431Z,100814.84
2023-05-19T23:21:06.860Z,100809.77
2023-05-19T23:23:37.032Z,100811.48
2023-05-19T23:26:07.404Z,100806.53
2023-05-19T23:28:36.645Z,100805.59
2023-05-19T23:31:06.362Z,100806.35
2023-05-19T23:33:35.716Z,100800.80
2023-05-19T23:36:10.495Z,100798.31
2023-05-19T23:38:40.121Z,100804.54
2023-05-19T23:41:09.465Z,100797.37
2023-05-19T23:43:39.682Z,100796.21
2023-05-19T23:46:09.527Z,100791.96
2023-05-19T23:48:39.728Z,100793.34
2023-05-19T23:51:09.327Z,100793.10
2023-05-19T23:53:38.877Z,100794.53
2023-05-19T23:56:08.859Z,100793.42
2023-05-19T23:58:38.554Z,100792.38
